sensor_id;sensor_type;location;lat;lon;timestamp;P1;durP1;ratioP1;P2;durP2;ratioP2
16979;SDS011;42288;52.182;21.156;2024-02-23T00:00:00;15.27;;;7.70;;
16979;SDS011;42288;52.182;21.156;2024-02-23T00:02:30;16.60;;;7.57;;
16979;SDS011;42288;52.182;21.156;2024-02-23T00:04:58;12.70;;;7.50;;
16979;SDS011;42288;52.182;21.156;2024-02-23T00:07:24;16.83;;;7.70;;
16979;SDS011;42288;52.182;21.156;2024-02-23T00:09:49;14.33;;;7.33;;
16979;SDS011;42288;52.182;21.156;2024-02-23T00:12:15;12.37;;;7.70;;
16979;SDS011;42288;52.182;21.156;2024-02-23T00:14:41;15.40;;;7.37;;
16979;SDS011;42288;52.182;21.156;2024-02-23T00:17:06;12.87;;;7.17;;
16979;SDS011;42288;52.182;21.156;2024-02-23T00:19:32;14.87;;;7.07;;
16979;SDS011;42288;52.182;21.156;2024-02-23T00:21:58;13.80;;;7.57;;
16979;SDS011;42288;52.182;21.156;2024-02-23T00:24:25;13.10;;;6.90;;
16979;SDS011;42288;52.182;21.156;2024-02-23T00:26:51;10.73;;;6.20;;
16979;SDS011;42288;52.182;21.156;2024-02-23T00:29:17;12.33;;;6.77;;
16979;SDS011;42288;52.182;21.156;2024-02-23T00:31:43;12.33;;;6.90;;
16979;SDS011;42288;52.182;21.156;2024-02-23T00:34:10;9.10;;;6.70;;
16979;SDS011;42288;52.182;21.156;2024-02-23T00:36:38;10.40;;;6.53;;
16979;SDS011;42288;52.182;21.156;2024-02-23T00:39:04;10.87;;;7.17;;
16979;SDS011;42288;52.182;21.156;2024-02-23T00:41:32;12.63;;;7.77;;
16979;SDS011;42288;52.182;21.156;2024-02-23T00:43:58;14.33;;;7.10;;
16979;SDS011;42288;52.182;21.156;2024-02-23T00:46:24;10.53;;;7.03;;
16979;SDS011;42288;52.182;21.156;2024-02-23T00:48:49;10.73;;;8.40;;
16979;SDS011;42288;52.182;21.156;2024-02-23T00:51:15;12.00;;;7.40;;
16979;SDS011;42288;52.182;21.156;2024-02-23T00:53:41;11.93;;;6.63;;
16979;SDS011;42288;52.182;21.156;2024-02-23T00:56:06;11.67;;;6.57;;
16979;SDS011;42288;52.182;21.156;2024-02-23T00:58:32;13.00;;;7.53;;
16979;SDS011;42288;52.182;21.156;2024-02-23T01:00:58;12.07;;;7.57;;
16979;SDS011;42288;52.182;21.156;2024-02-23T01:03:24;17.57;;;8.97;;
16979;SDS011;42288;52.182;21.156;2024-02-23T01:05:50;12.60;;;7.77;;
16979;SDS011;42288;52.182;21.156;2024-02-23T01:08:15;13.70;;;7.70;;
16979;SDS011;42288;52.182;21.156;2024-02-23T01:10:41;12.90;;;7.20;;
16979;SDS011;42288;52.182;21.156;2024-02-23T01:13:07;14.30;;;7.67;;
16979;SDS011;42288;52.182;21.156;2024-02-23T01:15:32;12.27;;;7.10;;
16979;SDS011;42288;52.182;21.156;2024-02-23T01:17:58;15.63;;;7.00;;
16979;SDS011;42288;52.182;21.156;2024-02-23T01:20:23;13.97;;;7.27;;
16979;SDS011;42288;52.182;21.156;2024-02-23T01:22:49;15.27;;;7.77;;
16979;SDS011;42288;52.182;21.156;2024-02-23T01:25:14;10.27;;;6.93;;
16979;SDS011;42288;52.182;21.156;2024-02-23T01:27:41;12.73;;;7.27;;
16979;SDS011;42288;52.182;21.156;2024-02-23T01:30:07;10.70;;;7.20;;
16979;SDS011;42288;52.182;21.156;2024-02-23T01:32:32;11.53;;;7.30;;
16979;SDS011;42288;52.182;21.156;2024-02-23T01:34:58;12.57;;;7.20;;
16979;SDS011;42288;52.182;21.156;2024-02-23T01:37:24;10.27;;;6.93;;
16979;SDS011;42288;52.182;21.156;2024-02-23T01:39:49;9.73;;;6.53;;
16979;SDS011;42288;52.182;21.156;2024-02-23T01:42:15;10.33;;;6.70;;
16979;SDS011;42288;52.182;21.156;2024-02-23T01:44:41;11.47;;;7.00;;
16979;SDS011;42288;52.182;21.156;2024-02-23T01:47:06;9.30;;;6.50;;
16979;SDS011;42288;52.182;21.156;2024-02-23T01:49:32;10.60;;;7.47;;
16979;SDS011;42288;52.182;21.156;2024-02-23T01:51:58;12.67;;;7.30;;
16979;SDS011;42288;52.182;21.156;2024-02-23T01:54:28;12.77;;;6.43;;
16979;SDS011;42288;52.182;21.156;2024-02-23T01:56:55;11.10;;;6.53;;
16979;SDS011;42288;52.182;21.156;2024-02-23T01:59:22;11.97;;;6.63;;
16979;SDS011;42288;52.182;21.156;2024-02-23T02:01:49;15.20;;;7.57;;
16979;SDS011;42288;52.182;21.156;2024-02-23T02:04:15;10.33;;;6.73;;
16979;SDS011;42288;52.182;21.156;2024-02-23T02:06:40;11.93;;;6.83;;
16979;SDS011;42288;52.182;21.156;2024-02-23T02:09:07;11.67;;;6.47;;
16979;SDS011;42288;52.182;21.156;2024-02-23T02:11:32;11.97;;;6.83;;
16979;SDS011;42288;52.182;21.156;2024-02-23T02:13:58;12.27;;;6.70;;
16979;SDS011;42288;52.182;21.156;2024-02-23T02:16:24;10.97;;;6.37;;
16979;SDS011;42288;52.182;21.156;2024-02-23T02:18:50;11.93;;;6.80;;
16979;SDS011;42288;52.182;21.156;2024-02-23T02:21:15;9.40;;;6.30;;
16979;SDS011;42288;52.182;21.156;2024-02-23T02:23:41;9.40;;;5.63;;
16979;SDS011;42288;52.182;21.156;2024-02-23T02:26:07;10.57;;;6.37;;
16979;SDS011;42288;52.182;21.156;2024-02-23T02:28:32;18.13;;;6.27;;
16979;SDS011;42288;52.182;21.156;2024-02-23T02:30:59;9.83;;;5.60;;
16979;SDS011;42288;52.182;21.156;2024-02-23T02:33:25;12.90;;;5.60;;
16979;SDS011;42288;52.182;21.156;2024-02-23T02:35:50;9.80;;;5.70;;
16979;SDS011;42288;52.182;21.156;2024-02-23T02:38:16;9.60;;;5.60;;
16979;SDS011;42288;52.182;21.156;2024-02-23T02:40:41;12.13;;;6.33;;
16979;SDS011;42288;52.182;21.156;2024-02-23T02:43:07;9.20;;;5.13;;
16979;SDS011;42288;52.182;21.156;2024-02-23T02:45:33;8.43;;;4.80;;
16979;SDS011;42288;52.182;21.156;2024-02-23T02:48:02;9.20;;;5.63;;
16979;SDS011;42288;52.182;21.156;2024-02-23T02:50:28;8.13;;;5.13;;
16979;SDS011;42288;52.182;21.156;2024-02-23T02:52:53;8.07;;;5.60;;
16979;SDS011;42288;52.182;21.156;2024-02-23T02:55:19;11.27;;;5.67;;
16979;SDS011;42288;52.182;21.156;2024-02-23T02:57:45;8.77;;;5.67;;
16979;SDS011;42288;52.182;21.156;2024-02-23T03:00:11;9.17;;;5.57;;
16979;SDS011;42288;52.182;21.156;2024-02-23T03:02:37;8.43;;;5.50;;
16979;SDS011;42288;52.182;21.156;2024-02-23T03:05:03;8.97;;;5.43;;
16979;SDS011;42288;52.182;21.156;2024-02-23T03:07:29;8.13;;;5.40;;
16979;SDS011;42288;52.182;21.156;2024-02-23T03:09:54;9.63;;;5.67;;
16979;SDS011;42288;52.182;21.156;2024-02-23T03:12:20;9.53;;;5.07;;
16979;SDS011;42288;52.182;21.156;2024-02-23T03:14:45;9.20;;;5.00;;
16979;SDS011;42288;52.182;21.156;2024-02-23T03:17:11;6.97;;;4.97;;
16979;SDS011;42288;52.182;21.156;2024-02-23T03:19:37;7.50;;;4.90;;
16979;SDS011;42288;52.182;21.156;2024-02-23T03:22:03;8.87;;;5.00;;
16979;SDS011;42288;52.182;21.156;2024-02-23T03:24:29;9.93;;;5.50;;
16979;SDS011;42288;52.182;21.156;2024-02-23T03:26:55;8.93;;;5.27;;
16979;SDS011;42288;52.182;21.156;2024-02-23T03:29:21;6.80;;;4.63;;
16979;SDS011;42288;52.182;21.156;2024-02-23T03:31:49;10.23;;;5.47;;
16979;SDS011;42288;52.182;21.156;2024-02-23T03:34:15;9.60;;;5.17;;
16979;SDS011;42288;52.182;21.156;2024-02-23T03:36:41;9.80;;;5.33;;
16979;SDS011;42288;52.182;21.156;2024-02-23T03:39:07;10.20;;;5.50;;
16979;SDS011;42288;52.182;21.156;2024-02-23T03:41:32;10.17;;;5.77;;
16979;SDS011;42288;52.182;21.156;2024-02-23T03:43:58;8.87;;;5.13;;
16979;SDS011;42288;52.182;21.156;2024-02-23T03:46:23;9.77;;;5.67;;
16979;SDS011;42288;52.182;21.156;2024-02-23T03:48:49;9.70;;;5.43;;
16979;SDS011;42288;52.182;21.156;2024-02-23T03:51:15;8.37;;;5.60;;
16979;SDS011;42288;52.182;21.156;2024-02-23T03:53:41;10.47;;;5.73;;
16979;SDS011;42288;52.182;21.156;2024-02-23T03:56:07;10.03;;;5.40;;
16979;SDS011;42288;52.182;21.156;2024-02-23T03:58:33;6.70;;;5.17;;
16979;SDS011;42288;52.182;21.156;2024-02-23T04:00:59;7.57;;;5.10;;
16979;SDS011;42288;52.182;21.156;2024-02-23T04:03:24;9.37;;;5.37;;
16979;SDS011;42288;52.182;21.156;2024-02-23T04:05:50;8.33;;;5.43;;
16979;SDS011;42288;52.182;21.156;2024-02-23T04:08:15;11.83;;;6.00;;
16979;SDS011;42288;52.182;21.156;2024-02-23T04:10:41;8.97;;;5.27;;
16979;SDS011;42288;52.182;21.156;2024-02-23T04:13:07;10.97;;;5.83;;
16979;SDS011;42288;52.182;21.156;2024-02-23T04:15:32;11.17;;;5.70;;
16979;SDS011;42288;52.182;21.156;2024-02-23T04:17:58;12.13;;;6.80;;
16979;SDS011;42288;52.182;21.156;2024-02-23T04:20:23;8.47;;;4.87;;
16979;SDS011;42288;52.182;21.156;2024-02-23T04:22:49;9.30;;;5.57;;
16979;SDS011;42288;52.182;21.156;2024-02-23T04:25:15;9.53;;;6.10;;
16979;SDS011;42288;52.182;21.156;2024-02-23T04:27:40;10.00;;;6.20;;
16979;SDS011;42288;52.182;21.156;2024-02-23T04:30:06;9.30;;;5.37;;
16979;SDS011;42288;52.182;21.156;2024-02-23T04:32:32;11.03;;;6.27;;
16979;SDS011;42288;52.182;21.156;2024-02-23T04:34:58;9.30;;;5.67;;
16979;SDS011;42288;52.182;21.156;2024-02-23T04:37:23;10.50;;;5.67;;
16979;SDS011;42288;52.182;21.156;2024-02-23T04:39:49;9.07;;;5.90;;
16979;SDS011;42288;52.182;21.156;2024-02-23T04:42:14;8.33;;;5.63;;
16979;SDS011;42288;52.182;21.156;2024-02-23T04:44:43;12.80;;;5.87;;
16979;SDS011;42288;52.182;21.156;2024-02-23T04:47:09;10.43;;;6.07;;
16979;SDS011;42288;52.182;21.156;2024-02-23T04:49:34;10.90;;;5.80;;
16979;SDS011;42288;52.182;21.156;2024-02-23T04:52:00;9.13;;;5.50;;
16979;SDS011;42288;52.182;21.156;2024-02-23T04:54:26;10.67;;;5.53;;
16979;SDS011;42288;52.182;21.156;2024-02-23T04:56:52;9.73;;;5.97;;
16979;SDS011;42288;52.182;21.156;2024-02-23T04:59:17;8.93;;;5.23;;
16979;SDS011;42288;52.182;21.156;2024-02-23T05:01:43;10.47;;;6.03;;
16979;SDS011;42288;52.182;21.156;2024-02-23T05:04:09;12.73;;;5.07;;
16979;SDS011;42288;52.182;21.156;2024-02-23T05:06:35;12.73;;;6.77;;
16979;SDS011;42288;52.182;21.156;2024-02-23T05:09:00;11.17;;;6.37;;
16979;SDS011;42288;52.182;21.156;2024-02-23T05:11:27;8.80;;;6.20;;
16979;SDS011;42288;52.182;21.156;2024-02-23T05:13:52;16.77;;;6.90;;
16979;SDS011;42288;52.182;21.156;2024-02-23T05:16:18;12.47;;;6.03;;
16979;SDS011;42288;52.182;21.156;2024-02-23T05:18:44;14.97;;;7.43;;
16979;SDS011;42288;52.182;21.156;2024-02-23T05:21:11;17.57;;;6.63;;
16979;SDS011;42288;52.182;21.156;2024-02-23T05:23:39;10.13;;;5.67;;
16979;SDS011;42288;52.182;21.156;2024-02-23T05:26:05;8.73;;;5.40;;
16979;SDS011;42288;52.182;21.156;2024-02-23T05:28:30;10.83;;;5.10;;
16979;SDS011;42288;52.182;21.156;2024-02-23T05:30:56;11.93;;;5.57;;
16979;SDS011;42288;52.182;21.156;2024-02-23T05:33:21;16.23;;;5.40;;
16979;SDS011;42288;52.182;21.156;2024-02-23T05:35:48;9.07;;;6.07;;
16979;SDS011;42288;52.182;21.156;2024-02-23T05:38:14;10.27;;;5.67;;
16979;SDS011;42288;52.182;21.156;2024-02-23T05:40:40;12.03;;;4.83;;
16979;SDS011;42288;52.182;21.156;2024-02-23T05:43:06;13.97;;;5.87;;
16979;SDS011;42288;52.182;21.156;2024-02-23T05:45:31;10.10;;;4.93;;
16979;SDS011;42288;52.182;21.156;2024-02-23T05:47:57;7.30;;;4.70;;
16979;SDS011;42288;52.182;21.156;2024-02-23T05:50:23;14.27;;;5.37;;
16979;SDS011;42288;52.182;21.156;2024-02-23T05:52:48;11.13;;;5.13;;
16979;SDS011;42288;52.182;21.156;2024-02-23T05:55:14;9.80;;;4.87;;
16979;SDS011;42288;52.182;21.156;2024-02-23T05:57:40;8.97;;;4.53;;
16979;SDS011;42288;52.182;21.156;2024-02-23T06:00:06;6.13;;;4.27;;
16979;SDS011;42288;52.182;21.156;2024-02-23T06:02:32;8.27;;;4.37;;
16979;SDS011;42288;52.182;21.156;2024-02-23T06:04:58;6.80;;;4.40;;
16979;SDS011;42288;52.182;21.156;2024-02-23T06:07:23;6.70;;;4.10;;
16979;SDS011;42288;52.182;21.156;2024-02-23T06:09:54;9.73;;;5.00;;
16979;SDS011;42288;52.182;21.156;2024-02-23T06:12:22;7.13;;;4.17;;
16979;SDS011;42288;52.182;21.156;2024-02-23T06:14:50;9.33;;;4.60;;
16979;SDS011;42288;52.182;21.156;2024-02-23T06:17:16;10.17;;;4.80;;
16979;SDS011;42288;52.182;21.156;2024-02-23T06:19:42;8.27;;;5.03;;
16979;SDS011;42288;52.182;21.156;2024-02-23T06:22:07;10.70;;;4.80;;
16979;SDS011;42288;52.182;21.156;2024-02-23T06:24:35;14.07;;;5.13;;
16979;SDS011;42288;52.182;21.156;2024-02-23T06:27:00;11.63;;;5.60;;
16979;SDS011;42288;52.182;21.156;2024-02-23T06:29:28;19.53;;;7.43;;
16979;SDS011;42288;52.182;21.156;2024-02-23T06:31:54;10.57;;;4.93;;
16979;SDS011;42288;52.182;21.156;2024-02-23T06:34:20;22.53;;;8.30;;
16979;SDS011;42288;52.182;21.156;2024-02-23T06:36:46;24.97;;;8.10;;
16979;SDS011;42288;52.182;21.156;2024-02-23T06:39:11;27.40;;;8.57;;
16979;SDS011;42288;52.182;21.156;2024-02-23T06:41:37;8.73;;;5.20;;
16979;SDS011;42288;52.182;21.156;2024-02-23T06:44:04;6.63;;;4.17;;
16979;SDS011;42288;52.182;21.156;2024-02-23T06:46:30;10.30;;;4.03;;
16979;SDS011;42288;52.182;21.156;2024-02-23T06:48:55;4.13;;;3.23;;
16979;SDS011;42288;52.182;21.156;2024-02-23T06:51:21;8.53;;;4.13;;
16979;SDS011;42288;52.182;21.156;2024-02-23T06:53:46;8.70;;;4.67;;
16979;SDS011;42288;52.182;21.156;2024-02-23T06:56:12;9.67;;;4.90;;
16979;SDS011;42288;52.182;21.156;2024-02-23T06:58:38;8.23;;;5.07;;
16979;SDS011;42288;52.182;21.156;2024-02-23T07:01:04;6.93;;;4.50;;
16979;SDS011;42288;52.182;21.156;2024-02-23T07:03:31;5.70;;;4.50;;
16979;SDS011;42288;52.182;21.156;2024-02-23T07:05:57;11.10;;;5.17;;
16979;SDS011;42288;52.182;21.156;2024-02-23T07:08:23;13.07;;;5.73;;
16979;SDS011;42288;52.182;21.156;2024-02-23T07:10:49;6.87;;;4.73;;
16979;SDS011;42288;52.182;21.156;2024-02-23T07:13:14;6.37;;;3.80;;
16979;SDS011;42288;52.182;21.156;2024-02-23T07:15:40;9.27;;;4.47;;
16979;SDS011;42288;52.182;21.156;2024-02-23T07:18:06;6.10;;;3.27;;
16979;SDS011;42288;52.182;21.156;2024-02-23T07:20:33;6.83;;;3.63;;
16979;SDS011;42288;52.182;21.156;2024-02-23T07:23:00;7.40;;;4.03;;
16979;SDS011;42288;52.182;21.156;2024-02-23T07:25:26;5.90;;;4.03;;
16979;SDS011;42288;52.182;21.156;2024-02-23T07:27:51;8.40;;;4.03;;
16979;SDS011;42288;52.182;21.156;2024-02-23T07:30:17;6.73;;;3.57;;
16979;SDS011;42288;52.182;21.156;2024-02-23T07:32:43;7.40;;;3.90;;
16979;SDS011;42288;52.182;21.156;2024-02-23T07:35:09;7.17;;;3.80;;
16979;SDS011;42288;52.182;21.156;2024-02-23T07:37:38;6.87;;;3.77;;
16979;SDS011;42288;52.182;21.156;2024-02-23T07:40:04;5.93;;;3.90;;
16979;SDS011;42288;52.182;21.156;2024-02-23T07:42:31;7.00;;;3.80;;
16979;SDS011;42288;52.182;21.156;2024-02-23T07:44:57;7.80;;;4.10;;
16979;SDS011;42288;52.182;21.156;2024-02-23T07:47:23;9.77;;;3.53;;
16979;SDS011;42288;52.182;21.156;2024-02-23T07:49:49;9.93;;;3.77;;
16979;SDS011;42288;52.182;21.156;2024-02-23T07:52:16;7.10;;;4.20;;
16979;SDS011;42288;52.182;21.156;2024-02-23T07:54:41;6.23;;;3.77;;
16979;SDS011;42288;52.182;21.156;2024-02-23T07:57:07;9.07;;;4.43;;
16979;SDS011;42288;52.182;21.156;2024-02-23T07:59:32;14.73;;;3.90;;
16979;SDS011;42288;52.182;21.156;2024-02-23T08:01:58;11.20;;;4.00;;
16979;SDS011;42288;52.182;21.156;2024-02-23T08:04:24;8.23;;;4.60;;
16979;SDS011;42288;52.182;21.156;2024-02-23T08:06:50;9.43;;;5.03;;
16979;SDS011;42288;52.182;21.156;2024-02-23T08:09:16;7.37;;;4.23;;
16979;SDS011;42288;52.182;21.156;2024-02-23T08:11:42;6.53;;;3.80;;
16979;SDS011;42288;52.182;21.156;2024-02-23T08:14:08;5.83;;;3.97;;
16979;SDS011;42288;52.182;21.156;2024-02-23T08:16:34;9.63;;;4.70;;
16979;SDS011;42288;52.182;21.156;2024-02-23T08:18:59;8.47;;;4.50;;
16979;SDS011;42288;52.182;21.156;2024-02-23T08:21:25;9.03;;;4.07;;
16979;SDS011;42288;52.182;21.156;2024-02-23T08:23:51;11.53;;;4.80;;
16979;SDS011;42288;52.182;21.156;2024-02-23T08:26:17;9.97;;;5.20;;
16979;SDS011;42288;52.182;21.156;2024-02-23T08:28:42;8.43;;;4.13;;
16979;SDS011;42288;52.182;21.156;2024-02-23T08:31:08;8.13;;;4.57;;
16979;SDS011;42288;52.182;21.156;2024-02-23T08:33:34;6.53;;;3.60;;
16979;SDS011;42288;52.182;21.156;2024-02-23T08:35:59;9.67;;;4.37;;
16979;SDS011;42288;52.182;21.156;2024-02-23T08:38:25;6.80;;;3.80;;
16979;SDS011;42288;52.182;21.156;2024-02-23T08:40:51;6.67;;;4.00;;
16979;SDS011;42288;52.182;21.156;2024-02-23T08:43:16;6.90;;;3.90;;
16979;SDS011;42288;52.182;21.156;2024-02-23T08:45:42;6.03;;;4.30;;
16979;SDS011;42288;52.182;21.156;2024-02-23T08:48:08;5.57;;;3.70;;
16979;SDS011;42288;52.182;21.156;2024-02-23T08:50:33;8.53;;;4.87;;
16979;SDS011;42288;52.182;21.156;2024-02-23T08:52:59;7.40;;;4.53;;
16979;SDS011;42288;52.182;21.156;2024-02-23T08:55:25;7.57;;;4.63;;
16979;SDS011;42288;52.182;21.156;2024-02-23T08:57:50;8.23;;;4.73;;
16979;SDS011;42288;52.182;21.156;2024-02-23T09:00:16;8.30;;;4.67;;
16979;SDS011;42288;52.182;21.156;2024-02-23T09:02:42;11.27;;;4.17;;
16979;SDS011;42288;52.182;21.156;2024-02-23T09:05:08;9.47;;;4.20;;
16979;SDS011;42288;52.182;21.156;2024-02-23T09:07:34;7.17;;;4.30;;
16979;SDS011;42288;52.182;21.156;2024-02-23T09:10:00;9.27;;;4.70;;
16979;SDS011;42288;52.182;21.156;2024-02-23T09:12:27;11.73;;;5.00;;
16979;SDS011;42288;52.182;21.156;2024-02-23T09:14:52;8.83;;;4.17;;
16979;SDS011;42288;52.182;21.156;2024-02-23T09:17:18;6.90;;;3.93;;
16979;SDS011;42288;52.182;21.156;2024-02-23T09:19:45;9.50;;;4.23;;
16979;SDS011;42288;52.182;21.156;2024-02-23T09:22:11;7.50;;;5.20;;
16979;SDS011;42288;52.182;21.156;2024-02-23T09:24:40;7.90;;;4.20;;
16979;SDS011;42288;52.182;21.156;2024-02-23T09:27:06;7.77;;;4.50;;
16979;SDS011;42288;52.182;21.156;2024-02-23T09:29:32;8.70;;;4.70;;
16979;SDS011;42288;52.182;21.156;2024-02-23T09:31:58;10.20;;;4.70;;
16979;SDS011;42288;52.182;21.156;2024-02-23T09:34:24;7.43;;;4.90;;
16979;SDS011;42288;52.182;21.156;2024-02-23T09:36:50;8.27;;;4.60;;
16979;SDS011;42288;52.182;21.156;2024-02-23T09:39:16;9.07;;;5.03;;
16979;SDS011;42288;52.182;21.156;2024-02-23T09:41:42;9.37;;;4.27;;
16979;SDS011;42288;52.182;21.156;2024-02-23T09:44:08;8.67;;;5.10;;
16979;SDS011;42288;52.182;21.156;2024-02-23T09:46:36;8.93;;;4.90;;
16979;SDS011;42288;52.182;21.156;2024-02-23T09:49:02;10.17;;;4.97;;
16979;SDS011;42288;52.182;21.156;2024-02-23T09:51:28;7.77;;;4.87;;
16979;SDS011;42288;52.182;21.156;2024-02-23T09:53:56;8.10;;;4.70;;
16979;SDS011;42288;52.182;21.156;2024-02-23T09:56:23;9.90;;;5.90;;
16979;SDS011;42288;52.182;21.156;2024-02-23T09:58:54;6.70;;;4.70;;
16979;SDS011;42288;52.182;21.156;2024-02-23T10:01:27;5.60;;;4.23;;
16979;SDS011;42288;52.182;21.156;2024-02-23T10:03:56;12.40;;;6.80;;
16979;SDS011;42288;52.182;21.156;2024-02-23T10:06:26;8.83;;;5.87;;
16979;SDS011;42288;52.182;21.156;2024-02-23T10:08:55;9.20;;;5.77;;
16979;SDS011;42288;52.182;21.156;2024-02-23T10:11:21;9.37;;;5.73;;
16979;SDS011;42288;52.182;21.156;2024-02-23T10:13:47;9.23;;;5.20;;
16979;SDS011;42288;52.182;21.156;2024-02-23T10:16:19;8.70;;;5.47;;
16979;SDS011;42288;52.182;21.156;2024-02-23T10:18:46;8.43;;;4.90;;
16979;SDS011;42288;52.182;21.156;2024-02-23T10:21:17;8.50;;;5.00;;
16979;SDS011;42288;52.182;21.156;2024-02-23T10:23:47;15.83;;;6.47;;
16979;SDS011;42288;52.182;21.156;2024-02-23T10:26:15;12.07;;;6.73;;
16979;SDS011;42288;52.182;21.156;2024-02-23T10:28:44;8.77;;;5.67;;
16979;SDS011;42288;52.182;21.156;2024-02-23T10:31:12;8.80;;;5.63;;
16979;SDS011;42288;52.182;21.156;2024-02-23T10:33:38;8.83;;;4.67;;
16979;SDS011;42288;52.182;21.156;2024-02-23T10:36:03;8.90;;;5.17;;
16979;SDS011;42288;52.182;21.156;2024-02-23T10:38:32;10.00;;;5.60;;
16979;SDS011;42288;52.182;21.156;2024-02-23T10:40:58;7.13;;;4.73;;
16979;SDS011;42288;52.182;21.156;2024-02-23T10:43:30;7.07;;;4.50;;
16979;SDS011;42288;52.182;21.156;2024-02-23T10:46:01;8.83;;;5.67;;
16979;SDS011;42288;52.182;21.156;2024-02-23T10:48:30;11.27;;;5.60;;
16979;SDS011;42288;52.182;21.156;2024-02-23T10:50:56;10.87;;;5.33;;
16979;SDS011;42288;52.182;21.156;2024-02-23T10:53:23;9.17;;;4.83;;
16979;SDS011;42288;52.182;21.156;2024-02-23T10:55:52;12.70;;;5.30;;
16979;SDS011;42288;52.182;21.156;2024-02-23T10:58:23;6.47;;;4.73;;
16979;SDS011;42288;52.182;21.156;2024-02-23T11:00:49;13.63;;;5.57;;
16979;SDS011;42288;52.182;21.156;2024-02-23T11:03:14;9.07;;;5.03;;
16979;SDS011;42288;52.182;21.156;2024-02-23T11:05:41;8.40;;;4.77;;
16979;SDS011;42288;52.182;21.156;2024-02-23T11:08:07;9.50;;;5.77;;
16979;SDS011;42288;52.182;21.156;2024-02-23T11:10:43;11.70;;;6.23;;
16979;SDS011;42288;52.182;21.156;2024-02-23T11:13:15;10.43;;;5.57;;
16979;SDS011;42288;52.182;21.156;2024-02-23T11:15:41;10.23;;;5.30;;
16979;SDS011;42288;52.182;21.156;2024-02-23T11:18:23;14.13;;;5.70;;
16979;SDS011;42288;52.182;21.156;2024-02-23T11:20:56;8.37;;;4.80;;
16979;SDS011;42288;52.182;21.156;2024-02-23T11:23:24;9.80;;;5.67;;
16979;SDS011;42288;52.182;21.156;2024-02-23T11:28:28;9.67;;;5.53;;
16979;SDS011;42288;52.182;21.156;2024-02-23T11:30:54;10.60;;;5.90;;
16979;SDS011;42288;52.182;21.156;2024-02-23T11:33:26;13.83;;;6.13;;
16979;SDS011;42288;52.182;21.156;2024-02-23T11:35:52;8.67;;;5.37;;
16979;SDS011;42288;52.182;21.156;2024-02-23T11:38:18;8.83;;;5.57;;
16979;SDS011;42288;52.182;21.156;2024-02-23T11:40:49;10.00;;;5.83;;
16979;SDS011;42288;52.182;21.156;2024-02-23T11:43:17;14.40;;;6.33;;
16979;SDS011;42288;52.182;21.156;2024-02-23T11:45:43;14.87;;;6.60;;
16979;SDS011;42288;52.182;21.156;2024-02-23T11:48:12;11.43;;;6.60;;
16979;SDS011;42288;52.182;21.156;2024-02-23T11:50:37;11.80;;;6.20;;
16979;SDS011;42288;52.182;21.156;2024-02-23T11:53:03;14.83;;;6.83;;
16979;SDS011;42288;52.182;21.156;2024-02-23T11:55:29;14.23;;;7.73;;
16979;SDS011;42288;52.182;21.156;2024-02-23T11:57:54;10.87;;;6.80;;
16979;SDS011;42288;52.182;21.156;2024-02-23T12:00:20;11.00;;;6.87;;
16979;SDS011;42288;52.182;21.156;2024-02-23T12:02:46;11.40;;;6.77;;
16979;SDS011;42288;52.182;21.156;2024-02-23T12:05:14;11.93;;;6.03;;
16979;SDS011;42288;52.182;21.156;2024-02-23T12:07:40;11.17;;;6.33;;
16979;SDS011;42288;52.182;21.156;2024-02-23T12:10:06;12.87;;;6.43;;
16979;SDS011;42288;52.182;21.156;2024-02-23T12:12:32;9.23;;;6.10;;
16979;SDS011;42288;52.182;21.156;2024-02-23T12:14:58;10.57;;;5.93;;
16979;SDS011;42288;52.182;21.156;2024-02-23T12:17:24;10.87;;;6.27;;
16979;SDS011;42288;52.182;21.156;2024-02-23T12:19:57;8.50;;;5.67;;
16979;SDS011;42288;52.182;21.156;2024-02-23T12:22:24;11.17;;;6.00;;
16979;SDS011;42288;52.182;21.156;2024-02-23T12:24:50;9.97;;;6.20;;
16979;SDS011;42288;52.182;21.156;2024-02-23T12:27:19;12.10;;;7.00;;
16979;SDS011;42288;52.182;21.156;2024-02-23T12:29:52;11.03;;;5.63;;
16979;SDS011;42288;52.182;21.156;2024-02-23T12:32:19;10.57;;;5.77;;
16979;SDS011;42288;52.182;21.156;2024-02-23T12:34:46;10.87;;;6.27;;
16979;SDS011;42288;52.182;21.156;2024-02-23T12:37:16;10.73;;;6.90;;
16979;SDS011;42288;52.182;21.156;2024-02-23T12:39:42;10.47;;;6.17;;
16979;SDS011;42288;52.182;21.156;2024-02-23T12:42:08;14.07;;;6.23;;
16979;SDS011;42288;52.182;21.156;2024-02-23T12:44:34;9.73;;;5.90;;
16979;SDS011;42288;52.182;21.156;2024-02-23T12:47:00;9.53;;;5.77;;
16979;SDS011;42288;52.182;21.156;2024-02-23T12:49:26;8.70;;;5.93;;
16979;SDS011;42288;52.182;21.156;2024-02-23T12:51:51;9.63;;;6.00;;
16979;SDS011;42288;52.182;21.156;2024-02-23T12:54:17;11.33;;;6.30;;
16979;SDS011;42288;52.182;21.156;2024-02-23T12:56:43;15.57;;;6.80;;
16979;SDS011;42288;52.182;21.156;2024-02-23T12:59:09;10.57;;;6.37;;
16979;SDS011;42288;52.182;21.156;2024-02-23T13:01:35;10.77;;;5.70;;
16979;SDS011;42288;52.182;21.156;2024-02-23T13:04:02;10.43;;;6.77;;
16979;SDS011;42288;52.182;21.156;2024-02-23T13:06:34;9.23;;;5.90;;
16979;SDS011;42288;52.182;21.156;2024-02-23T13:09:03;9.17;;;6.33;;
16979;SDS011;42288;52.182;21.156;2024-02-23T13:11:29;9.83;;;6.20;;
16979;SDS011;42288;52.182;21.156;2024-02-23T13:13:55;10.60;;;6.00;;
16979;SDS011;42288;52.182;21.156;2024-02-23T13:16:21;13.50;;;7.77;;
16979;SDS011;42288;52.182;21.156;2024-02-23T13:18:46;11.10;;;6.17;;
16979;SDS011;42288;52.182;21.156;2024-02-23T13:21:12;11.07;;;6.00;;
16979;SDS011;42288;52.182;21.156;2024-02-23T13:23:38;12.40;;;6.60;;
16979;SDS011;42288;52.182;21.156;2024-02-23T13:26:04;11.17;;;6.50;;
16979;SDS011;42288;52.182;21.156;2024-02-23T13:28:30;9.47;;;5.53;;
16979;SDS011;42288;52.182;21.156;2024-02-23T13:30:55;10.63;;;6.07;;
16979;SDS011;42288;52.182;21.156;2024-02-23T13:33:21;12.77;;;6.47;;
16979;SDS011;42288;52.182;21.156;2024-02-23T13:35:48;11.10;;;6.53;;
16979;SDS011;42288;52.182;21.156;2024-02-23T13:38:14;12.27;;;6.83;;
16979;SDS011;42288;52.182;21.156;2024-02-23T13:40:40;11.50;;;7.37;;
16979;SDS011;42288;52.182;21.156;2024-02-23T13:43:05;9.87;;;6.03;;
16979;SDS011;42288;52.182;21.156;2024-02-23T13:45:31;11.57;;;6.00;;
16979;SDS011;42288;52.182;21.156;2024-02-23T13:48:01;12.20;;;6.40;;
16979;SDS011;42288;52.182;21.156;2024-02-23T13:50:28;11.90;;;5.90;;
16979;SDS011;42288;52.182;21.156;2024-02-23T13:52:54;8.97;;;6.00;;
16979;SDS011;42288;52.182;21.156;2024-02-23T13:55:20;13.47;;;6.60;;
16979;SDS011;42288;52.182;21.156;2024-02-23T13:57:49;10.47;;;5.93;;
16979;SDS011;42288;52.182;21.156;2024-02-23T14:00:15;10.67;;;5.90;;
16979;SDS011;42288;52.182;21.156;2024-02-23T14:02:42;11.00;;;6.33;;
16979;SDS011;42288;52.182;21.156;2024-02-23T14:05:08;9.20;;;6.10;;
16979;SDS011;42288;52.182;21.156;2024-02-23T14:07:34;12.70;;;7.00;;
16979;SDS011;42288;52.182;21.156;2024-02-23T14:10:00;11.43;;;6.73;;
16979;SDS011;42288;52.182;21.156;2024-02-23T14:12:27;12.23;;;6.50;;
16979;SDS011;42288;52.182;21.156;2024-02-23T14:14:53;12.60;;;6.90;;
16979;SDS011;42288;52.182;21.156;2024-02-23T14:17:19;11.97;;;7.07;;
16979;SDS011;42288;52.182;21.156;2024-02-23T14:19:44;14.70;;;7.57;;
16979;SDS011;42288;52.182;21.156;2024-02-23T14:22:10;14.93;;;7.30;;
16979;SDS011;42288;52.182;21.156;2024-02-23T14:24:36;11.90;;;7.50;;